Time;durP1;ratioP1;P1;durP2;ratioP2;P2;SDS_P1;SDS_P2;PMS_P1;PMS_P2;Temp;Humidity;BMP_temperature;BMP_pressure;BME280_temperature;BME280_humidity;BME280_pressure;Samples;Min_cycle;Max_cycle;Signal;HPM_P1;HPM_P2
2023/07/12 00:01:13;;;;;;;2.43;2.10;;;30.70;52.70;;;;;;5011738;28;20462;-77
2023/07/12 00:03:41;;;;;;;4.83;2.60;;;30.70;52.60;;;;;;5011178;28;20496;-77
2023/07/12 00:06:13;;;;;;;3.90;2.67;;;30.70;52.60;;;;;;5014311;28;20431;-77
2023/07/12 00:12:29;;;;;;;4.10;2.20;;;30.70;52.50;;;;;;5028460;28;20533;-77
2023/07/12 00:14:57;;;;;;;2.57;1.87;;;30.70;52.60;;;;;;5031124;28;20479;-78
2023/07/12 00:17:25;;;;;;;2.57;1.90;;;30.70;52.60;;;;;;5031259;28;20534;-77
2023/07/12 00:19:53;;;;;;;2.30;1.90;;;30.70;52.50;;;;;;5031195;28;20538;-77
2023/07/12 00:22:23;;;;;;;4.33;2.80;;;30.70;52.60;;;;;;5019122;28;20907;-77
2023/07/12 00:24:52;;;;;;;2.70;2.07;;;30.80;52.60;;;;;;5011332;28;21050;-78
2023/07/12 00:27:20;;;;;;;6.67;3.50;;;30.80;52.60;;;;;;5022893;28;20519;-77
2023/07/12 00:29:47;;;;;;;2.27;1.87;;;30.80;52.60;;;;;;5029873;28;20458;-77
2023/07/12 00:32:16;;;;;;;1.80;1.70;;;30.80;52.60;;;;;;5030510;28;20562;-77
2023/07/12 00:34:44;;;;;;;2.00;1.83;;;30.80;52.50;;;;;;5030105;28;20446;-77
2023/07/12 00:37:13;;;;;;;4.13;1.90;;;30.80;52.50;;;;;;5029517;28;20497;-77
2023/07/12 00:39:43;;;;;;;2.10;1.90;;;30.80;52.50;;;;;;5033204;28;20452;-77
2023/07/12 00:42:17;;;;;;;4.20;2.00;;;30.80;52.50;;;;;;5033587;28;20443;-77
2023/07/12 00:44:49;;;;;;;3.20;1.90;;;30.80;52.50;;;;;;5033697;28;20548;-77
2023/07/12 00:47:17;;;;;;;2.90;1.77;;;30.80;52.50;;;;;;5031342;28;20517;-76
2023/07/12 00:49:45;;;;;;;1.93;1.67;;;30.80;52.40;;;;;;5034452;28;20463;-77
2023/07/12 00:52:14;;;;;;;6.87;1.57;;;30.80;52.60;;;;;;5034412;28;20471;-77
2023/07/12 00:54:53;;;;;;;3.50;2.10;;;30.80;52.50;;;;;;5034390;28;20521;-77
2023/07/12 00:57:21;;;;;;;2.17;2.07;;;30.80;52.40;;;;;;5034131;28;20518;-77
2023/07/12 00:59:47;;;;;;;2.23;2.03;;;30.80;52.50;;;;;;5034595;28;20446;-77
2023/07/12 01:02:16;;;;;;;2.07;1.97;;;30.80;52.40;;;;;;5032504;28;20451;-77
2023/07/12 01:04:44;;;;;;;2.13;1.93;;;30.80;52.40;;;;;;5032972;28;20463;-76
2023/07/12 01:07:13;;;;;;;2.20;2.00;;;30.80;52.40;;;;;;5034136;28;20485;-76
2023/07/12 01:09:41;;;;;;;2.40;2.20;;;30.80;52.40;;;;;;5034126;28;20481;-76
2023/07/12 01:12:10;;;;;;;4.20;1.70;;;30.80;52.40;;;;;;5032456;28;20562;-76
2023/07/12 01:14:38;;;;;;;2.13;1.83;;;30.80;52.90;;;;;;5014297;28;20500;-77
2023/07/12 01:17:07;;;;;;;2.83;2.30;;;30.80;52.40;;;;;;5031760;28;20526;-76
2023/07/12 01:19:36;;;;;;;4.53;2.03;;;30.80;52.40;;;;;;5031767;28;20455;-76
2023/07/12 01:22:05;;;;;;;2.33;2.07;;;30.80;52.30;;;;;;5033909;28;20436;-76
2023/07/12 01:24:33;;;;;;;2.00;1.73;;;30.80;53.00;;;;;;5034216;28;20486;-76
2023/07/12 01:27:04;;;;;;;3.23;2.20;;;30.80;52.30;;;;;;5033836;28;20459;-75
2023/07/12 01:29:31;;;;;;;3.10;1.80;;;30.80;52.40;;;;;;5033940;28;20453;-76
2023/07/12 01:31:59;;;;;;;3.13;1.80;;;30.80;52.40;;;;;;5033541;28;20499;-76
2023/07/12 01:34:27;;;;;;;2.27;2.17;;;30.80;52.30;;;;;;5034376;28;20526;-76
2023/07/12 01:36:55;;;;;;;1.73;1.60;;;30.80;52.30;;;;;;5032758;28;20802;-76
2023/07/12 01:39:25;;;;;;;2.00;1.87;;;30.80;52.30;;;;;;5033670;28;20461;-76
2023/07/12 01:41:53;;;;;;;2.30;2.10;;;30.80;52.30;;;;;;5031292;28;20522;-76
2023/07/12 01:44:21;;;;;;;2.03;1.77;;;30.80;52.20;;;;;;5033382;28;20542;-76
2023/07/12 01:46:49;;;;;;;1.80;1.70;;;30.80;52.30;;;;;;5032936;28;20526;-76
2023/07/12 01:49:17;;;;;;;1.90;1.70;;;30.80;52.40;;;;;;5032477;28;20877;-76
2023/07/12 01:51:45;;;;;;;1.83;1.73;;;30.80;52.40;;;;;;5032517;28;20499;-76
2023/07/12 01:54:13;;;;;;;1.70;1.60;;;30.80;52.30;;;;;;5033295;28;21057;-76
2023/07/12 01:56:42;;;;;;;2.43;1.60;;;30.80;52.40;;;;;;5033467;28;20470;-76
2023/07/12 01:59:10;;;;;;;1.83;1.40;;;30.80;52.30;;;;;;5024112;28;20551;-76
2023/07/12 02:01:38;;;;;;;2.23;1.30;;;30.80;52.40;;;;;;5032866;28;20463;-75
2023/07/12 02:04:07;;;;;;;2.53;2.07;;;30.80;52.30;;;;;;5032222;28;20467;-75
2023/07/12 02:06:34;;;;;;;2.30;1.73;;;30.80;52.30;;;;;;5033169;28;20530;-76
2023/07/12 02:09:03;;;;;;;2.50;1.80;;;30.80;52.20;;;;;;5032485;28;20441;-76
2023/07/12 02:11:31;;;;;;;1.80;1.70;;;30.80;52.40;;;;;;5023733;28;20538;-75
2023/07/12 02:14:00;;;;;;;2.10;1.63;;;30.80;52.30;;;;;;5025555;28;20495;-76
2023/07/12 02:16:28;;;;;;;1.60;1.50;;;30.80;52.20;;;;;;5031610;28;20480;-77
2023/07/12 02:18:57;;;;;;;1.73;1.63;;;30.80;52.30;;;;;;5032017;28;20482;-76
2023/07/12 02:21:24;;;;;;;1.73;1.63;;;30.80;52.30;;;;;;5031409;28;20457;-76
2023/07/12 02:23:53;;;;;;;3.60;1.60;;;30.80;52.40;;;;;;5031745;28;20494;-76
2023/07/12 02:26:20;;;;;;;2.20;1.60;;;30.80;52.30;;;;;;5032680;28;20435;-76
2023/07/12 02:28:48;;;;;;;1.97;1.87;;;30.80;52.40;;;;;;5026393;28;20884;-76
2023/07/12 02:31:19;;;;;;;2.07;1.97;;;30.80;52.50;;;;;;5012524;28;20975;-76
2023/07/12 02:33:48;;;;;;;1.63;1.53;;;30.80;52.30;;;;;;5020020;28;20484;-76
2023/07/12 02:36:16;;;;;;;2.23;1.90;;;30.80;52.50;;;;;;5030653;28;20467;-76
2023/07/12 02:38:46;;;;;;;2.40;1.70;;;30.80;52.50;;;;;;5024354;28;20490;-77
2023/07/12 02:41:14;;;;;;;1.60;1.50;;;30.80;52.40;;;;;;5031846;28;20414;-77
2023/07/12 02:43:43;;;;;;;2.97;1.53;;;30.80;52.40;;;;;;5032739;28;20463;-76
2023/07/12 02:46:10;;;;;;;1.90;1.80;;;30.80;52.50;;;;;;5029924;28;20434;-76
2023/07/12 02:48:39;;;;;;;5.33;1.67;;;30.80;52.50;;;;;;5029664;28;20464;-76
2023/07/12 02:51:07;;;;;;;1.90;1.80;;;30.70;52.40;;;;;;5030852;28;20926;-76
2023/07/12 02:53:36;;;;;;;1.90;1.80;;;30.70;52.60;;;;;;5025526;28;20531;-76
2023/07/12 02:56:07;;;;;;;3.13;1.77;;;30.70;52.50;;;;;;5031311;28;20785;-76
2023/07/12 02:58:36;;;;;;;1.57;1.50;;;30.80;52.50;;;;;;5031405;28;20763;-76
2023/07/12 03:01:04;;;;;;;1.77;1.67;;;30.70;52.60;;;;;;5037949;28;20409;-75
2023/07/12 03:03:32;;;;;;;1.87;1.77;;;30.80;53.20;;;;;;5030013;28;20525;-76
2023/07/12 03:06:04;;;;;;;1.53;1.40;;;30.80;52.50;;;;;;5026170;28;20468;-75
2023/07/12 03:08:32;;;;;;;1.80;1.70;;;30.70;52.30;;;;;;5030625;28;20562;-76
2023/07/12 03:11:00;;;;;;;1.70;1.60;;;30.70;52.50;;;;;;5030697;28;20444;-76
2023/07/12 03:13:29;;;;;;;2.13;1.63;;;30.70;52.60;;;;;;5030249;28;20861;-76
2023/07/12 03:15:58;;;;;;;1.50;1.40;;;30.70;52.40;;;;;;5031962;28;20444;-76
2023/07/12 03:18:27;;;;;;;1.80;1.70;;;30.70;52.50;;;;;;5031670;28;20517;-76
2023/07/12 03:20:59;;;;;;;1.57;1.30;;;30.70;52.60;;;;;;5029450;28;20825;-76
2023/07/12 03:23:29;;;;;;;2.13;1.83;;;30.70;52.50;;;;;;5029046;28;20550;-76
2023/07/12 03:25:57;;;;;;;1.87;1.77;;;30.70;52.50;;;;;;5018607;28;20422;-76
2023/07/12 03:28:25;;;;;;;1.63;1.53;;;30.70;52.60;;;;;;5031644;28;20526;-76
2023/07/12 03:30:59;;;;;;;1.67;1.60;;;30.70;52.60;;;;;;5031406;28;20505;-76
2023/07/12 03:33:27;;;;;;;1.73;1.63;;;30.70;52.70;;;;;;5028734;28;20483;-76
2023/07/12 03:35:55;;;;;;;1.57;1.50;;;30.70;52.70;;;;;;5026180;28;20456;-76
2023/07/12 03:38:25;;;;;;;2.60;1.60;;;30.70;52.60;;;;;;5031568;28;20930;-76
2023/07/12 03:40:54;;;;;;;1.50;1.47;;;30.70;52.50;;;;;;5023487;28;20470;-75
2023/07/12 03:43:22;;;;;;;1.80;1.70;;;30.70;52.60;;;;;;5030227;28;20456;-76
2023/07/12 03:45:50;;;;;;;1.60;1.50;;;30.60;52.60;;;;;;5031398;28;20438;-76
2023/07/12 03:48:18;;;;;;;1.77;1.67;;;30.70;52.60;;;;;;5031050;28;20443;-76
2023/07/12 03:50:48;;;;;;;1.70;1.60;;;30.70;52.70;;;;;;5026781;28;20452;-76
2023/07/12 03:53:16;;;;;;;2.27;1.60;;;30.70;52.60;;;;;;5011108;28;20536;-75
2023/07/12 03:55:45;;;;;;;1.73;1.53;;;30.70;52.60;;;;;;5030550;28;20418;-76
2023/07/12 03:58:15;;;;;;;1.60;1.50;;;30.60;52.60;;;;;;5031217;28;21009;-76
2023/07/12 04:00:44;;;;;;;1.37;1.37;;;30.60;52.60;;;;;;5023517;28;20476;-76
2023/07/12 04:03:12;;;;;;;1.40;1.30;;;30.70;52.70;;;;;;5030812;28;20414;-76
2023/07/12 04:05:40;;;;;;;1.50;1.40;;;30.60;52.60;;;;;;5030603;28;20454;-76
2023/07/12 04:08:08;;;;;;;1.40;1.40;;;30.70;52.60;;;;;;5030138;28;20522;-76
2023/07/12 04:10:36;;;;;;;1.60;1.50;;;30.60;52.60;;;;;;5029399;28;20457;-76
2023/07/12 04:13:04;;;;;;;1.70;1.60;;;30.60;52.60;;;;;;5029752;28;20496;-76
2023/07/12 04:15:35;;;;;;;2.30;1.30;;;30.60;52.80;;;;;;5031029;28;20436;-76
2023/07/12 04:18:03;;;;;;;1.40;1.40;;;30.60;52.70;;;;;;5030320;28;20451;-75
2023/07/12 04:20:31;;;;;;;1.70;1.60;;;30.60;52.80;;;;;;5030357;28;20435;-76
2023/07/12 04:22:59;;;;;;;1.63;1.53;;;30.60;52.60;;;;;;5031059;28;20417;-76
2023/07/12 04:25:27;;;;;;;1.90;1.80;;;30.60;52.80;;;;;;5030470;28;20837;-76
2023/07/12 04:27:55;;;;;;;1.63;1.53;;;30.60;53.10;;;;;;5030924;28;20501;-75
2023/07/12 04:30:23;;;;;;;1.83;1.47;;;30.60;52.70;;;;;;5028459;28;20516;-76
2023/07/12 04:32:52;;;;;;;2.23;1.70;;;30.60;52.80;;;;;;5030245;28;20561;-76
2023/07/12 04:35:20;;;;;;;1.80;1.70;;;30.60;52.80;;;;;;5030448;28;20517;-76
2023/07/12 04:37:49;;;;;;;1.60;1.50;;;30.60;52.70;;;;;;5026050;28;20438;-76
2023/07/12 04:40:17;;;;;;;1.93;1.67;;;30.50;52.80;;;;;;5014320;28;20527;-76
2023/07/12 04:42:46;;;;;;;1.67;1.57;;;30.50;52.70;;;;;;5012214;28;20475;-76
2023/07/12 04:45:14;;;;;;;1.97;1.87;;;30.50;52.80;;;;;;5010462;28;20434;-76
2023/07/12 04:47:43;;;;;;;1.30;1.30;;;30.50;52.80;;;;;;5030196;28;20544;-76
2023/07/12 04:50:13;;;;;;;2.03;1.90;;;30.50;52.90;;;;;;5030609;28;20447;-76
2023/07/12 04:52:40;;;;;;;1.63;1.50;;;30.50;52.70;;;;;;5030293;28;20463;-76
2023/07/12 04:55:20;;;;;;;1.80;1.70;;;30.50;53.00;;;;;;5030803;28;20546;-76
2023/07/12 04:57:48;;;;;;;1.60;1.50;;;30.50;53.00;;;;;;5026835;28;20530;-76
2023/07/12 05:00:17;;;;;;;1.60;1.50;;;30.50;52.90;;;;;;5025724;28;20445;-76
2023/07/12 05:02:46;;;;;;;3.27;1.60;;;30.50;52.90;;;;;;5020466;28;20482;-77
2023/07/12 05:05:15;;;;;;;2.50;1.40;;;30.40;52.80;;;;;;5033900;28;20459;-76
2023/07/12 05:07:43;;;;;;;1.50;1.40;;;30.40;53.00;;;;;;5033538;28;20525;-76
2023/07/12 05:10:11;;;;;;;1.40;1.33;;;30.40;53.00;;;;;;5034259;28;20530;-77
2023/07/12 05:12:40;;;;;;;1.40;1.30;;;30.40;53.30;;;;;;5029191;28;20450;-77
2023/07/12 05:15:08;;;;;;;4.20;1.87;;;30.50;53.00;;;;;;5020915;28;20561;-77
2023/07/12 05:17:36;;;;;;;1.63;1.47;;;30.40;53.10;;;;;;5028707;28;20443;-76
2023/07/12 05:20:06;;;;;;;1.50;1.40;;;30.50;53.00;;;;;;5014979;28;20437;-76
2023/07/12 05:22:36;;;;;;;2.10;1.60;;;30.40;53.10;;;;;;5024143;28;20469;-76
2023/07/12 05:25:04;;;;;;;2.07;1.40;;;30.40;53.10;;;;;;5030675;28;20479;-76
2023/07/12 05:27:33;;;;;;;1.70;1.60;;;30.40;53.20;;;;;;5024187;28;20470;-75
2023/07/12 05:30:00;;;;;;;3.00;1.70;;;30.50;53.00;;;;;;5018549;28;20443;-76
2023/07/12 05:32:29;;;;;;;1.80;1.70;;;30.40;53.00;;;;;;5033777;28;20431;-76
2023/07/12 05:34:56;;;;;;;1.50;1.50;;;30.50;53.20;;;;;;5033483;28;20569;-76
2023/07/12 05:37:24;;;;;;;1.90;1.80;;;30.40;52.90;;;;;;5031159;28;20491;-76
2023/07/12 05:40:00;;;;;;;1.50;1.40;;;30.40;53.00;;;;;;5021770;28;20444;-76
2023/07/12 05:42:28;;;;;;;1.73;1.50;;;30.50;53.10;;;;;;5037448;28;20461;-76
2023/07/12 05:44:56;;;;;;;2.27;1.30;;;30.50;53.00;;;;;;5023425;28;20502;-76
2023/07/12 05:47:23;;;;;;;1.60;1.50;;;30.50;53.00;;;;;;5024663;28;20452;-76
2023/07/12 05:49:52;;;;;;;1.50;1.50;;;30.50;53.00;;;;;;5024468;28;20446;-76
2023/07/12 05:52:19;;;;;;;1.60;1.50;;;30.50;53.00;;;;;;5025028;28;20521;-76
2023/07/12 05:54:47;;;;;;;1.60;1.50;;;30.50;52.90;;;;;;5026133;28;21024;-76
2023/07/12 05:57:16;;;;;;;1.90;1.80;;;30.50;52.90;;;;;;5027846;28;20422;-76
2023/07/12 05:59:44;;;;;;;2.33;1.60;;;30.50;52.90;;;;;;5025346;28;20436;-76
2023/07/12 06:02:13;;;;;;;1.60;1.50;;;30.50;52.90;;;;;;5032530;28;20414;-76
2023/07/12 06:04:41;;;;;;;1.57;1.47;;;30.50;52.90;;;;;;5026416;28;20468;-75
2023/07/12 06:07:09;;;;;;;1.40;1.37;;;30.50;52.90;;;;;;5033014;28;20911;-76
2023/07/12 06:09:37;;;;;;;1.80;1.70;;;30.50;52.90;;;;;;5026525;28;20449;-76
2023/07/12 06:12:06;;;;;;;1.20;1.20;;;30.50;53.00;;;;;;5026518;28;20499;-76
2023/07/12 06:14:36;;;;;;;1.27;1.27;;;30.50;53.00;;;;;;5033147;28;20570;-76
2023/07/12 06:17:04;;;;;;;1.10;1.10;;;30.50;52.90;;;;;;5032663;28;20897;-76
2023/07/12 06:19:33;;;;;;;1.73;1.63;;;30.50;53.00;;;;;;5032728;28;20443;-75
2023/07/12 06:22:00;;;;;;;1.50;1.50;;;30.50;52.90;;;;;;5032824;28;20421;-76
2023/07/12 06:24:29;;;;;;;2.00;1.90;;;30.50;52.90;;;;;;5032884;28;20463;-76
2023/07/12 06:26:56;;;;;;;1.47;1.37;;;30.50;52.90;;;;;;5034339;28;20469;-76
2023/07/12 06:29:25;;;;;;;1.73;1.63;;;30.50;52.90;;;;;;5020886;28;20475;-75
2023/07/12 06:31:55;;;;;;;3.03;2.23;;;30.50;52.70;;;;;;5013037;28;20479;-76
2023/07/12 06:34:23;;;;;;;1.50;1.40;;;30.60;52.80;;;;;;5028312;28;20570;-76
2023/07/12 06:36:50;;;;;;;1.57;1.57;;;30.60;52.70;;;;;;5012845;28;20470;-76
2023/07/12 06:39:18;;;;;;;2.80;1.30;;;30.60;52.80;;;;;;5012898;28;20443;-75
2023/07/12 06:41:46;;;;;;;1.83;1.27;;;30.60;52.60;;;;;;5014170;28;20542;-76
2023/07/12 06:44:14;;;;;;;1.20;1.20;;;30.60;52.60;;;;;;5031114;28;20495;-75
2023/07/12 06:46:42;;;;;;;1.60;1.50;;;30.60;52.60;;;;;;5022152;28;20803;-76
2023/07/12 06:49:13;;;;;;;1.40;1.30;;;30.60;52.50;;;;;;5032349;28;20535;-76
2023/07/12 06:51:41;;;;;;;1.17;1.17;;;30.60;52.60;;;;;;5026205;28;20558;-76
2023/07/12 06:54:08;;;;;;;1.40;1.30;;;30.70;52.50;;;;;;5018463;28;20478;-76
2023/07/12 06:56:37;;;;;;;1.33;1.33;;;30.70;52.50;;;;;;5019868;28;20481;-76
2023/07/12 06:59:05;;;;;;;1.23;1.23;;;30.70;52.50;;;;;;5027197;28;20530;-76
2023/07/12 07:01:33;;;;;;;1.60;1.50;;;30.70;52.50;;;;;;5032058;28;20482;-76
2023/07/12 07:04:01;;;;;;;1.33;1.23;;;30.70;52.50;;;;;;5030823;28;20512;-76
2023/07/12 07:06:30;;;;;;;1.57;1.47;;;30.70;52.40;;;;;;5031951;28;20472;-76
2023/07/12 07:08:59;;;;;;;1.30;1.30;;;30.70;52.40;;;;;;5030236;28;20934;-76
2023/07/12 07:11:26;;;;;;;1.40;1.40;;;30.70;52.40;;;;;;5016543;28;20415;-76
2023/07/12 07:13:55;;;;;;;3.90;1.53;;;30.70;52.40;;;;;;5024172;28;20535;-76
2023/07/12 07:16:24;;;;;;;1.67;1.30;;;30.70;52.40;;;;;;5026254;28;20479;-76
2023/07/12 07:18:52;;;;;;;1.60;1.50;;;30.70;52.50;;;;;;5022806;28;20485;-76
2023/07/12 07:21:20;;;;;;;1.30;1.20;;;30.80;52.50;;;;;;5032145;28;20778;-76
2023/07/12 07:23:50;;;;;;;1.90;1.80;;;30.70;52.50;;;;;;5031306;28;20470;-76
2023/07/12 07:26:18;;;;;;;1.77;1.67;;;30.70;52.50;;;;;;5032482;28;20443;-78
2023/07/12 07:28:46;;;;;;;6.63;3.00;;;30.70;51.10;;;;;;5032667;28;20470;-76
2023/07/12 07:31:14;;;;;;;7.90;3.60;;;28.20;54.80;;;;;;5033345;28;20549;-77
2023/07/12 07:33:41;;;;;;;14.67;4.47;;;26.70;58.00;;;;;;5061563;22;20490;-77
2023/07/12 07:36:11;;;;;;;13.07;5.70;;;26.30;59.30;;;;;;4992636;28;20483;-79
2023/07/12 07:38:39;;;;;;;6.40;4.00;;;25.70;63.80;;;;;;4995298;28;20422;-79
2023/07/12 07:41:10;;;;;;;9.27;4.47;;;25.70;62.60;;;;;;4988166;28;20499;-79
2023/07/12 07:43:39;;;;;;;11.40;4.80;;;25.80;64.00;;;;;;4994807;28;20487;-79
2023/07/12 07:46:07;;;;;;;9.10;3.83;;;25.30;66.20;;;;;;4976236;28;20421;-79
2023/07/12 07:48:36;;;;;;;7.40;3.63;;;25.00;67.00;;;;;;4974561;28;20492;-79
2023/07/12 07:51:04;;;;;;;9.83;3.90;;;24.50;71.20;;;;;;4982750;28;20452;-79
2023/07/12 07:53:33;;;;;;;10.67;4.70;;;24.50;72.40;;;;;;4975893;28;20419;-80
2023/07/12 07:56:01;;;;;;;13.13;3.87;;;24.10;71.00;;;;;;4975554;28;20476;-79
2023/07/12 07:58:31;;;;;;;10.93;4.60;;;24.10;76.00;;;;;;4973554;28;20537;-79
2023/07/12 08:00:59;;;;;;;6.97;3.63;;;23.90;76.60;;;;;;4975342;28;20918;-79
2023/07/12 08:03:27;;;;;;;10.60;4.80;;;23.70;77.50;;;;;;4974622;28;20474;-78
2023/07/12 08:06:01;;;;;;;16.37;4.50;;;23.60;78.20;;;;;;4971664;28;20446;-79
2023/07/12 08:08:30;;;;;;;12.57;4.83;;;23.80;78.20;;;;;;4978790;28;20947;-79
2023/07/12 08:10:58;;;;;;;20.90;5.03;;;23.70;79.00;;;;;;4974315;28;20434;-78
2023/07/12 08:13:26;;;;;;;13.43;4.33;;;23.60;82.60;;;;;;4974224;28;20408;-78
2023/07/12 08:15:56;;;;;;;11.13;4.50;;;23.60;81.40;;;;;;4973986;28;20449;-78
2023/07/12 08:18:24;;;;;;;11.03;4.70;;;23.40;81.00;;;;;;4971991;28;20450;-78
2023/07/12 08:20:54;;;;;;;7.67;4.20;;;23.60;83.60;;;;;;4974413;28;20458;-79
2023/07/12 08:23:23;;;;;;;9.07;4.43;;;23.80;82.80;;;;;;4973905;28;20428;-79
2023/07/12 08:25:51;;;;;;;12.00;4.80;;;23.40;82.80;;;;;;4976738;28;20440;-79
2023/07/12 08:28:19;;;;;;;10.87;4.40;;;23.30;86.00;;;;;;4974928;28;20545;-79
2023/07/12 08:30:47;;;;;;;12.73;4.40;;;23.30;86.00;;;;;;4974018;28;20915;-79
2023/07/12 08:33:17;;;;;;;9.60;4.47;;;23.20;82.40;;;;;;4975465;28;20504;-79
2023/07/12 08:35:45;;;;;;;10.93;4.60;;;23.00;81.70;;;;;;4974306;28;20540;-79
2023/07/12 08:38:18;;;;;;;8.70;4.23;;;23.00;82.30;;;;;;4974049;28;20460;-78
2023/07/12 08:40:47;;;;;;;14.70;5.97;;;22.90;84.20;;;;;;4971082;28;20438;-78
2023/07/12 08:43:17;;;;;;;15.03;7.17;;;23.10;86.20;;;;;;4978011;28;20470;-78
2023/07/12 08:45:45;;;;;;;12.40;4.10;;;22.90;85.00;;;;;;4981711;28;20494;-78
2023/07/12 08:48:18;;;;;;;8.90;4.30;;;23.00;85.80;;;;;;4973787;28;20436;-79
2023/07/12 08:50:46;;;;;;;7.83;4.33;;;23.10;85.40;;;;;;4973566;28;20480;-80
2023/07/12 08:53:16;;;;;;;10.00;5.03;;;23.60;83.60;;;;;;4990330;28;20441;-79
2023/07/12 08:55:44;;;;;;;9.30;4.83;;;23.60;80.10;;;;;;4980759;28;21042;-79
2023/07/12 08:58:17;;;;;;;8.80;4.30;;;23.80;81.20;;;;;;4978165;28;20461;-79
2023/07/12 09:00:46;;;;;;;10.27;6.07;;;23.80;81.50;;;;;;4979736;28;20442;-79
2023/07/12 09:03:15;;;;;;;14.30;4.70;;;24.10;82.00;;;;;;4986921;28;20438;-79
2023/07/12 09:05:43;;;;;;;14.13;4.80;;;24.10;78.00;;;;;;4983377;28;20510;-79
2023/07/12 09:08:17;;;;;;;12.17;4.30;;;23.80;79.00;;;;;;4985946;28;20455;-80
2023/07/12 09:10:47;;;;;;;8.00;4.50;;;23.80;78.50;;;;;;4981670;28;20455;-80
2023/07/12 09:13:15;;;;;;;9.50;3.97;;;23.80;79.20;;;;;;4986518;28;20455;-84
2023/07/12 09:15:44;;;;;;;9.00;3.50;;;24.40;78.30;;;;;;4981252;28;20528;-84
2023/07/12 09:18:24;;;;;;;13.20;3.87;;;25.30;73.60;;;;;;4970541;28;20464;-83
2023/07/12 09:20:52;;;;;;;13.33;3.90;;;26.00;69.50;;;;;;4983630;28;20430;-84
2023/07/12 09:23:20;;;;;;;14.97;4.33;;;26.40;66.60;;;;;;4993148;28;20460;-83
2023/07/12 09:25:54;;;;;;;5.43;3.60;;;26.70;64.30;;;;;;4984898;28;20510;-84
2023/07/12 09:28:21;;;;;;;5.00;3.33;;;27.10;63.30;;;;;;4981495;28;20441;-83
2023/07/12 09:30:51;;;;;;;9.63;3.80;;;27.60;61.90;;;;;;4980986;28;20537;-84
2023/07/12 09:33:23;;;;;;;8.23;3.77;;;27.60;59.30;;;;;;4978690;28;20508;-84
2023/07/12 09:35:51;;;;;;;11.57;3.77;;;27.70;58.80;;;;;;4980788;28;20460;-84
2023/07/12 09:38:25;;;;;;;10.43;3.57;;;28.00;58.70;;;;;;4981465;28;20447;-83
2023/07/12 09:40:53;;;;;;;8.03;3.60;;;28.30;57.90;;;;;;4990536;28;20433;-84
2023/07/12 09:43:22;;;;;;;9.03;3.63;;;28.40;57.10;;;;;;4985425;28;20444;-84
2023/07/12 09:46:00;;;;;;;8.10;3.40;;;28.50;56.80;;;;;;4983519;28;20452;-83
2023/07/12 09:48:43;;;;;;;6.50;3.63;;;28.70;55.60;;;;;;4972333;28;20438;-83
2023/07/12 09:51:21;;;;;;;9.33;3.57;;;28.70;55.10;;;;;;4972188;28;21067;-83
2023/07/12 09:53:52;;;;;;;6.33;2.93;;;28.80;54.70;;;;;;4984476;28;20513;-84
2023/07/12 09:56:23;;;;;;;8.47;3.63;;;28.70;54.20;;;;;;4981063;28;20552;-84
2023/07/12 09:58:56;;;;;;;6.77;3.43;;;28.60;54.20;;;;;;4988721;28;20500;-83
2023/07/12 10:01:29;;;;;;;10.10;3.30;;;28.60;54.50;;;;;;4990677;28;20533;-84
2023/07/12 10:04:00;;;;;;;5.97;3.43;;;28.70;53.90;;;;;;4990439;28;20440;-84
2023/07/12 10:06:31;;;;;;;10.50;3.53;;;28.90;53.80;;;;;;4982958;28;20472;-83
2023/07/12 10:09:01;;;;;;;6.00;3.10;;;29.00;52.90;;;;;;4990961;28;20429;-81
2023/07/12 10:11:32;;;;;;;4.77;3.20;;;28.90;53.00;;;;;;4977571;28;20492;-83
2023/07/12 10:14:02;;;;;;;5.43;2.77;;;28.90;51.90;;;;;;4985191;28;20437;-83
2023/07/12 10:16:34;;;;;;;8.93;3.23;;;28.70;51.70;;;;;;4980046;28;20569;-82
2023/07/12 10:19:05;;;;;;;8.97;3.37;;;28.50;51.30;;;;;;4981427;28;20418;-83
2023/07/12 10:21:34;;;;;;;9.07;2.90;;;28.40;51.80;;;;;;4971936;28;20405;-82
2023/07/12 10:24:04;;;;;;;9.70;2.90;;;28.60;52.00;;;;;;4974704;28;20457;-82
2023/07/12 10:26:32;;;;;;;7.50;2.97;;;28.70;51.80;;;;;;4972351;28;20425;-81
2023/07/12 10:29:03;;;;;;;7.10;3.17;;;28.90;51.80;;;;;;4970988;28;20546;-81
2023/07/12 10:31:37;;;;;;;6.17;3.40;;;29.00;52.20;;;;;;4967956;28;20450;-82
2023/07/12 10:34:18;;;;;;;3.13;2.80;;;29.20;51.70;;;;;;4973847;28;20470;-83
2023/07/12 10:36:47;;;;;;;8.10;3.20;;;29.10;51.20;;;;;;4970271;28;20472;-81
2023/07/12 10:39:15;;;;;;;3.90;2.57;;;29.10;51.10;;;;;;4974695;28;20534;-81
2023/07/12 10:41:44;;;;;;;8.37;3.07;;;29.00;50.40;;;;;;4973982;28;20517;-82
2023/07/12 10:44:17;;;;;;;4.30;2.67;;;28.80;50.40;;;;;;4970841;28;20473;-83
2023/07/12 10:46:49;;;;;;;8.33;3.10;;;28.70;51.40;;;;;;4973764;28;20521;-80
2023/07/12 10:49:20;;;;;;;8.87;3.23;;;28.90;50.90;;;;;;4973993;28;20462;-83
2023/07/12 10:52:04;;;;;;;8.00;3.13;;;29.10;51.30;;;;;;4974144;28;20484;-81
2023/07/12 10:54:43;;;;;;;8.23;3.03;;;29.50;51.50;;;;;;4974351;28;20454;-81
2023/07/12 10:57:24;;;;;;;7.80;3.00;;;29.70;50.40;;;;;;4976333;28;20473;-81
2023/07/12 10:59:59;;;;;;;7.30;3.30;;;29.60;50.60;;;;;;4976529;28;20573;-81
2023/07/12 11:02:27;;;;;;;4.77;3.10;;;29.40;49.90;;;;;;4982390;28;20501;-81
2023/07/12 11:04:56;;;;;;;10.00;3.33;;;29.50;49.80;;;;;;4978202;28;20464;-81
2023/07/12 11:07:35;;;;;;;7.43;3.30;;;29.40;49.80;;;;;;4973063;28;20405;-80
2023/07/12 11:10:24;;;;;;;6.37;3.20;;;29.40;50.00;;;;;;4982481;28;20464;-82
2023/07/12 11:12:55;;;;;;;7.77;3.50;;;29.30;49.70;;;;;;4970941;28;20529;-81
2023/07/12 11:15:24;;;;;;;7.43;3.30;;;29.20;50.40;;;;;;4974919;28;20545;-80
2023/07/12 11:18:00;;;;;;;12.10;3.37;;;29.20;50.10;;;;;;4973521;28;20482;-82
2023/07/12 11:20:30;;;;;;;6.53;3.17;;;29.10;51.10;;;;;;4973739;28;20404;-82
2023/07/12 11:23:00;;;;;;;5.77;3.10;;;29.40;51.30;;;;;;4974200;28;20447;-81
2023/07/12 11:25:37;;;;;;;9.00;2.90;;;29.60;51.20;;;;;;4973676;28;20432;-84
2023/07/12 11:28:06;;;;;;;5.50;2.80;;;30.10;51.30;;;;;;4973961;28;20438;-83
2023/07/12 11:30:43;;;;;;;4.63;2.70;;;30.60;49.80;;;;;;4975669;28;20501;-83
2023/07/12 11:33:25;;;;;;;5.37;3.20;;;30.90;50.00;;;;;;4969411;28;20462;-83
2023/07/12 11:35:57;;;;;;;4.43;3.40;;;31.10;48.20;;;;;;4974178;28;20911;-83
2023/07/12 11:38:27;;;;;;;3.80;2.27;;;31.10;48.20;;;;;;4963904;28;20837;-83
2023/07/12 11:40:55;;;;;;;5.77;3.00;;;31.20;47.90;;;;;;4971398;28;20424;-83
2023/07/12 11:43:35;;;;;;;4.17;2.90;;;31.30;48.00;;;;;;4975308;28;20543;-79
2023/07/12 11:46:04;;;;;;;3.70;3.03;;;31.30;48.10;;;;;;4973904;28;20454;-82
2023/07/12 11:48:33;;;;;;;5.50;3.30;;;31.40;47.80;;;;;;4973992;28;20458;-82
2023/07/12 11:51:08;;;;;;;4.40;2.90;;;31.40;48.70;;;;;;4969863;28;20450;-82
2023/07/12 11:53:37;;;;;;;4.87;3.40;;;32.20;46.40;;;;;;4970610;28;20441;-82
2023/07/12 11:56:06;;;;;;;5.70;3.07;;;31.90;46.60;;;;;;4976555;28;20450;-80
2023/07/12 11:58:35;;;;;;;3.73;3.10;;;31.70;47.00;;;;;;4990453;28;20469;-82
2023/07/12 12:01:03;;;;;;;3.93;3.13;;;31.60;47.40;;;;;;4987848;28;20513;-83
2023/07/12 12:03:31;;;;;;;4.17;3.10;;;31.40;47.70;;;;;;4983632;28;20424;-82
2023/07/12 12:06:00;;;;;;;4.83;3.87;;;31.40;48.10;;;;;;4982970;28;20417;-82
2023/07/12 12:08:30;;;;;;;3.60;3.10;;;31.40;48.10;;;;;;4974666;28;20499;-81
2023/07/12 12:10:58;;;;;;;3.93;3.20;;;31.40;48.20;;;;;;4985631;28;20450;-81
2023/07/12 12:13:29;;;;;;;4.50;3.53;;;31.30;48.20;;;;;;4978035;28;20528;-82
2023/07/12 12:16:00;;;;;;;8.83;3.60;;;31.30;48.40;;;;;;4979043;28;20534;-83
2023/07/12 12:18:31;;;;;;;6.07;2.93;;;31.30;48.50;;;;;;4973143;28;20483;-83
2023/07/12 12:21:01;;;;;;;4.07;3.53;;;31.20;48.70;;;;;;4969628;28;20443;-83
2023/07/12 12:23:35;;;;;;;3.88;3.45;;;31.20;48.90;;;;;;4979104;28;20442;-83
2023/07/12 12:26:06;;;;;;;4.00;3.60;;;32.40;48.80;;;;;;4977017;28;20219;-81
2023/07/12 12:28:35;;;;;;;6.43;3.97;;;33.20;45.70;;;;;;4971760;28;20433;-82
2023/07/12 12:31:16;;;;;;;5.77;3.90;;;33.30;46.00;;;;;;4987245;28;20475;-83
2023/07/12 12:33:45;;;;;;;8.13;3.47;;;33.20;45.40;;;;;;4988767;28;20433;-83
2023/07/12 12:36:23;;;;;;;3.27;3.00;;;32.90;46.00;;;;;;4986498;28;20445;-83
2023/07/12 12:39:00;;;;;;;4.63;3.37;;;32.60;46.50;;;;;;4996240;28;20589;-82
2023/07/12 12:41:36;;;;;;;3.63;3.33;;;32.30;47.10;;;;;;4985600;28;20469;-83
2023/07/12 12:44:09;;;;;;;3.97;3.20;;;32.10;47.50;;;;;;4978282;28;20570;-83
2023/07/12 12:46:38;;;;;;;6.03;4.60;;;32.00;47.70;;;;;;4993255;28;20445;-81
2023/07/12 12:49:20;;;;;;;5.20;3.23;;;31.90;48.00;;;;;;4986721;28;20444;-81
2023/07/12 12:51:53;;;;;;;3.33;2.60;;;30.50;47.30;;;;;;4991253;28;20420;-80
2023/07/12 12:54:26;;;;;;;4.37;3.13;;;28.30;51.70;;;;;;4986488;28;20470;-79
2023/07/12 12:56:55;;;;;;;11.97;2.73;;;28.10;54.40;;;;;;4990019;28;20446;-81
2023/07/12 12:59:43;;;;;;;5.03;2.07;;;28.10;55.20;;;;;;4983637;28;20425;-81
2023/07/12 13:02:31;;;;;;;5.07;2.20;;;29.20;55.20;;;;;;4982591;28;20540;-82